Metar Aviation Weather Data YMML

12°C Temp
6°C Dewpoint
% Humidity
Temperature
26 KM/H
16 MPH
14 KTS
20°
North North
East

Wind Speed
Clear
Conditions
Pressure 1026.92 (hPa) - 30.32 (in)
Visibility 6.2 (mi) - 10 (km)

Current Conditions
YMML
Metar :YMML 280530Z 02014KT CAVOK 12/06 Q1027
Tue 28th June 16:30 pm

  Metar Aviation API Data Provided by https://www.checkwx.com/ PHP scripts by weather34.com ©2022